Duson, Louisiana
Current Conditions -  °F | °C
As of 7:53 AM on Wednesday 22 Oct 2014 (Local Time) from KLFT Reporting Station
Clear Clear  
Wind Chill: 59°   Ceiling: Unl
Heat Index: 59°   Visibility: 7mi
Dew Point: 57°   Wind: 5mph
Humidity: 93%   Direction: 30°NNE
Pressure: 30.07"   Gusts: NA
Location:  30.24°N, 92.19°W
Report Text: KLFT 221253Z 03004KT 7SM CLR 15/14 A3007 RMK AO2 SLP183 T01500139
Loading
Personal Weather Stations






























Interactive Weather Map
Tropical Storm Tracking
New forecast layout! Learn more

10-Day Weather Forecast

Advertisements
Track Severe Weather on mobile